Time;durP1;ratioP1;P1;durP2;ratioP2;P2;SDS_P1;SDS_P2;PMS_P1;PMS_P2;Temp;Humidity;BMP_temperature;BMP_pressure;BME280_temperature;BME280_humidity;BME280_pressure;Samples;Min_cycle;Max_cycle;Signal;HPM_P1;HPM_P2
2021/11/11 05:00:45;;;;;;;63.40;39.47;;;2.30;99.90;;;;;;5995357;23;20385;-69
2021/11/11 05:03:24;;;;;;;90.17;42.90;;;2.40;99.90;;;;;;5017130;28;20849;-69
2021/11/11 05:05:52;;;;;;;134.13;42.10;;;2.30;99.90;;;;;;5017184;28;20833;-69
2021/11/11 05:08:18;;;;;;;173.03;55.00;;;2.40;99.90;;;;;;5016562;28;21044;-69
2021/11/11 05:10:49;;;;;;;195.70;43.13;;;2.30;99.90;;;;;;5016823;28;20473;-69
2021/11/11 05:13:15;;;;;;;74.27;34.50;;;2.20;99.90;;;;;;5016440;28;20525;-68
2021/11/11 05:15:43;;;;;;;104.73;36.90;;;2.20;99.90;;;;;;5017052;28;20463;-68
2021/11/11 05:18:10;;;;;;;55.37;31.40;;;2.10;99.90;;;;;;5017272;28;20457;-69
2021/11/11 05:20:37;;;;;;;46.10;30.30;;;2.20;99.90;;;;;;5016782;28;20848;-68
2021/11/11 05:23:05;;;;;;;51.53;30.20;;;2.20;99.90;;;;;;5016904;28;20453;-68
2021/11/11 05:25:31;;;;;;;37.70;30.57;;;2.20;99.90;;;;;;5016495;28;20481;-68
2021/11/11 05:27:59;;;;;;;90.27;32.80;;;2.30;99.90;;;;;;5016661;28;20486;-69
2021/11/11 05:30:28;;;;;;;181.93;33.13;;;2.30;99.90;;;;;;5016681;28;20464;-69
2021/11/11 05:32:56;;;;;;;50.37;29.70;;;2.30;99.90;;;;;;5016921;28;20453;-68
2021/11/11 05:35:23;;;;;;;141.30;33.90;;;2.30;99.90;;;;;;5016437;28;20449;-69
2021/11/11 05:37:51;;;;;;;97.80;29.17;;;2.30;99.90;;;;;;5016517;28;20814;-69
2021/11/11 05:40:19;;;;;;;388.60;41.37;;;2.30;99.90;;;;;;5016389;28;20457;-69
2021/11/11 05:42:46;;;;;;;265.03;39.07;;;2.00;99.90;;;;;;5016486;28;20441;-68
2021/11/11 05:45:15;;;;;;;230.90;43.17;;;1.90;99.90;;;;;;5016229;28;20485;-68
2021/11/11 05:47:42;;;;;;;306.20;47.30;;;1.80;99.90;;;;;;5016060;28;20558;-68
2021/11/11 05:50:12;;;;;;;414.97;53.43;;;1.70;99.90;;;;;;5016276;28;20460;-68
2021/11/11 05:52:39;;;;;;;51.27;36.80;;;1.70;99.90;;;;;;5017714;28;20442;-68
2021/11/11 05:55:08;;;;;;;163.60;42.57;;;1.80;99.90;;;;;;5016679;28;20529;-69
2021/11/11 05:57:35;;;;;;;437.80;52.10;;;1.90;99.90;;;;;;5016147;28;20460;-68
2021/11/11 06:00:01;;;;;;;62.17;37.13;;;1.90;99.90;;;;;;5016148;28;20486;-68
2021/11/11 06:02:28;;;;;;;77.23;39.73;;;1.90;99.90;;;;;;5015428;28;20881;-68
2021/11/11 06:04:55;;;;;;;106.73;40.30;;;2.00;99.90;;;;;;5016083;28;20485;-68
2021/11/11 06:07:23;;;;;;;495.13;53.40;;;2.10;99.90;;;;;;5015572;28;20952;-68
2021/11/11 06:09:49;;;;;;;259.17;47.27;;;2.00;99.90;;;;;;5015995;28;20456;-68
2021/11/11 06:12:16;;;;;;;358.63;49.77;;;2.10;99.90;;;;;;5015746;28;20499;-67
2021/11/11 06:14:43;;;;;;;317.80;51.73;;;2.00;99.90;;;;;;5017517;28;20449;-67
2021/11/11 06:17:10;;;;;;;359.20;52.10;;;1.90;99.90;;;;;;5018990;28;20797;-67
2021/11/11 06:19:38;;;;;;;186.37;48.27;;;2.00;99.90;;;;;;5015456;28;20795;-68
2021/11/11 06:22:05;;;;;;;330.40;49.10;;;2.00;99.90;;;;;;5015146;28;20526;-68
2021/11/11 06:24:34;;;;;;;415.37;53.57;;;2.10;99.90;;;;;;5015094;28;20481;-68
2021/11/11 06:27:01;;;;;;;263.87;46.07;;;2.00;99.90;;;;;;5014564;28;20484;-68
2021/11/11 06:29:28;;;;;;;119.27;37.87;;;2.10;99.90;;;;;;5015076;28;20451;-68
2021/11/11 06:31:55;;;;;;;169.43;41.70;;;2.10;99.90;;;;;;5014749;28;21001;-68
2021/11/11 06:34:21;;;;;;;114.07;38.70;;;2.10;99.90;;;;;;5022569;28;20484;-69
2021/11/11 06:36:48;;;;;;;74.77;36.57;;;2.20;99.90;;;;;;5018805;28;20532;-69
2021/11/11 06:39:15;;;;;;;188.30;39.13;;;2.20;99.90;;;;;;5014876;28;20457;-70
2021/11/11 06:41:43;;;;;;;303.83;42.77;;;2.20;99.90;;;;;;5014966;28;20978;-69
2021/11/11 06:44:10;;;;;;;83.13;36.47;;;2.20;99.90;;;;;;5014906;28;20473;-70
2021/11/11 06:46:38;;;;;;;340.50;42.40;;;2.20;99.90;;;;;;5014949;28;20454;-69
2021/11/11 06:49:04;;;;;;;179.17;38.20;;;2.20;99.90;;;;;;5014930;28;20464;-70
2021/11/11 06:51:31;;;;;;;269.97;41.20;;;2.10;99.90;;;;;;5014786;28;20476;-69
2021/11/11 06:53:58;;;;;;;99.47;36.90;;;2.20;99.90;;;;;;5014766;28;20460;-69
2021/11/11 06:56:24;;;;;;;108.97;35.23;;;2.20;99.90;;;;;;5016095;28;20968;-70
2021/11/11 06:58:52;;;;;;;69.87;32.43;;;2.10;99.90;;;;;;5015276;28;20457;-69
2021/11/11 07:01:21;;;;;;;66.50;32.97;;;2.20;99.90;;;;;;5014456;28;20487;-70
2021/11/11 07:03:48;;;;;;;80.17;34.43;;;2.20;99.90;;;;;;5014504;28;20456;-69
2021/11/11 07:06:15;;;;;;;51.73;33.10;;;2.30;99.90;;;;;;5014669;28;20464;-70
2021/11/11 07:08:42;;;;;;;158.33;35.87;;;2.30;99.90;;;;;;5014814;28;20458;-69
2021/11/11 07:11:08;;;;;;;222.10;40.77;;;2.40;99.90;;;;;;5015337;28;20983;-70
2021/11/11 07:13:35;;;;;;;196.60;34.13;;;2.80;99.90;;;;;;5014699;28;20453;-69
2021/11/11 07:16:04;;;;;;;201.07;30.17;;;3.40;99.90;;;;;;5014661;28;20432;-70
2021/11/11 07:18:31;;;;;;;209.53;31.30;;;4.00;99.90;;;;;;5014475;28;20456;-69
2021/11/11 07:20:58;;;;;;;175.33;26.87;;;4.10;99.90;;;;;;5014899;28;20810;-70
2021/11/11 07:23:25;;;;;;;151.70;25.50;;;4.20;99.90;;;;;;5014758;28;20447;-70
2021/11/11 07:25:52;;;;;;;123.43;24.30;;;4.10;99.90;;;;;;5016626;28;20485;-68
2021/11/11 07:28:20;;;;;;;153.60;24.03;;;3.80;99.90;;;;;;5016361;28;20508;-69
2021/11/11 07:30:47;;;;;;;60.00;22.43;;;3.90;99.90;;;;;;5014490;28;20473;-69
2021/11/11 07:33:16;;;;;;;40.07;20.33;;;3.80;99.90;;;;;;5014087;28;20948;-69
2021/11/11 07:35:44;;;;;;;58.57;21.67;;;3.90;99.90;;;;;;5014900;28;20495;-70
2021/11/11 07:38:12;;;;;;;33.40;19.80;;;4.20;99.90;;;;;;5018073;28;20466;-69
2021/11/11 07:40:39;;;;;;;24.70;16.77;;;4.80;99.90;;;;;;5028224;28;20499;-68
2021/11/11 07:43:06;;;;;;;19.13;16.50;;;5.30;99.90;;;;;;5028269;28;20445;-69
2021/11/11 07:45:33;;;;;;;21.20;17.87;;;5.80;99.90;;;;;;5018891;28;20469;-69
2021/11/11 07:48:01;;;;;;;23.20;17.60;;;5.80;99.90;;;;;;5018804;28;20455;-69
2021/11/11 07:50:31;;;;;;;19.90;17.80;;;5.90;99.90;;;;;;5018468;28;20457;-70
2021/11/11 07:53:00;;;;;;;18.07;16.27;;;5.90;99.90;;;;;;5018166;28;20455;-69
2021/11/11 07:55:27;;;;;;;18.43;16.53;;;6.30;99.90;;;;;;5018089;28;20449;-68
2021/11/11 07:57:55;;;;;;;18.47;16.67;;;6.80;99.90;;;;;;5018113;28;20464;-69
2021/11/11 08:00:22;;;;;;;21.20;18.20;;;7.30;99.90;;;;;;5017707;28;20467;-70
2021/11/11 08:02:49;;;;;;;19.30;17.40;;;7.80;99.90;;;;;;5017964;28;20460;-69
2021/11/11 08:05:19;;;;;;;19.23;17.20;;;8.40;99.90;;;;;;5017729;28;20481;-69
2021/11/11 08:07:48;;;;;;;20.60;17.37;;;8.60;99.90;;;;;;5017842;28;20456;-69
2021/11/11 08:10:17;;;;;;;14.33;12.83;;;8.90;99.90;;;;;;5017681;28;21043;-69
2021/11/11 08:12:43;;;;;;;17.57;15.97;;;9.70;99.90;;;;;;5017604;28;20484;-69
2021/11/11 08:15:11;;;;;;;15.70;14.30;;;10.30;99.90;;;;;;5017860;28;20460;-69
2021/11/11 08:17:38;;;;;;;16.60;15.07;;;10.70;99.90;;;;;;5017724;28;20457;-69
2021/11/11 08:20:06;;;;;;;14.87;13.67;;;11.30;99.90;;;;;;5017613;28;20464;-70
2021/11/11 08:22:33;;;;;;;14.53;13.33;;;11.60;99.90;;;;;;5017416;28;20484;-75
2021/11/11 08:25:02;;;;;;;15.97;14.57;;;11.90;99.90;;;;;;5024361;28;20471;-70
2021/11/11 08:27:28;;;;;;;16.77;15.27;;;11.90;99.90;;;;;;5018493;28;20460;-70
2021/11/11 08:29:55;;;;;;;16.80;15.50;;;12.30;99.90;;;;;;5017158;28;20979;-70
2021/11/11 08:32:22;;;;;;;18.47;16.67;;;12.80;99.90;;;;;;5017014;28;21055;-70
2021/11/11 08:34:50;;;;;;;17.23;15.73;;;13.30;99.90;;;;;;5017075;28;20445;-69
2021/11/11 08:37:18;;;;;;;19.23;17.53;;;13.10;99.90;;;;;;5017476;28;20503;-70
2021/11/11 08:39:45;;;;;;;20.50;18.47;;;12.40;99.90;;;;;;5017173;28;20454;-70
2021/11/11 08:42:13;;;;;;;22.23;20.03;;;12.50;99.90;;;;;;5017328;28;20477;-71
2021/11/11 08:44:42;;;;;;;20.80;18.83;;;13.00;99.90;;;;;;5016847;28;20985;-69
2021/11/11 08:47:09;;;;;;;21.60;19.47;;;13.20;99.90;;;;;;5017018;28;20816;-69
2021/11/11 08:49:36;;;;;;;23.67;21.00;;;13.80;99.90;;;;;;5016363;28;20528;-69
2021/11/11 08:52:03;;;;;;;23.43;20.50;;;13.70;99.30;;;;;;5017303;28;20513;-69
2021/11/11 08:54:30;;;;;;;23.37;19.77;;;14.00;99.60;;;;;;5016881;28;20460;-69
2021/11/11 08:56:57;;;;;;;22.40;20.10;;;14.80;97.00;;;;;;5017030;28;20462;-69
2021/11/11 08:59:25;;;;;;;24.00;21.50;;;15.30;95.10;;;;;;5017987;28;20454;-71
2021/11/11 09:01:54;;;;;;;24.27;21.97;;;14.90;94.20;;;;;;5017669;28;20482;-68
2021/11/11 09:04:22;;;;;;;24.70;22.10;;;14.40;96.50;;;;;;5017213;28;20491;-69
2021/11/11 09:06:50;;;;;;;30.20;20.60;;;14.20;95.60;;;;;;5016921;28;21005;-70
2021/11/11 09:09:18;;;;;;;21.53;19.30;;;14.50;97.20;;;;;;5016819;28;20895;-71
2021/11/11 09:11:46;;;;;;;20.07;17.97;;;15.00;96.40;;;;;;5016738;28;20486;-69
2021/11/11 09:14:13;;;;;;;21.07;18.20;;;15.30;94.40;;;;;;5016614;28;20459;-69
2021/11/11 09:16:42;;;;;;;21.67;18.13;;;15.40;94.00;;;;;;5016654;28;20457;-69
2021/11/11 09:19:10;;;;;;;22.63;20.40;;;15.30;93.70;;;;;;5016126;28;20484;-68
2021/11/11 09:21:38;;;;;;;25.50;22.97;;;15.30;93.60;;;;;;5016622;28;20483;-70
2021/11/11 09:24:05;;;;;;;23.93;21.47;;;14.60;93.00;;;;;;5016404;28;20953;-69
2021/11/11 09:26:32;;;;;;;24.83;21.07;;;14.60;93.80;;;;;;5016322;28;20483;-69
2021/11/11 09:29:00;;;;;;;24.20;21.60;;;14.70;94.20;;;;;;5016432;28;20458;-69
2021/11/11 09:31:27;;;;;;;24.97;22.47;;;14.80;94.10;;;;;;5016802;28;20480;-69
2021/11/11 09:33:55;;;;;;;24.30;21.97;;;15.10;93.50;;;;;;5016349;28;20466;-69
2021/11/11 09:36:22;;;;;;;25.37;22.87;;;14.90;93.30;;;;;;5016642;28;20444;-69
2021/11/11 09:38:50;;;;;;;24.17;21.67;;;14.60;93.10;;;;;;5016338;28;20460;-70
2021/11/11 09:41:19;;;;;;;23.27;20.87;;;14.10;93.80;;;;;;5016068;28;20476;-70
2021/11/11 09:43:46;;;;;;;21.63;19.53;;;13.60;94.80;;;;;;5016003;28;20463;-70
2021/11/11 09:46:14;;;;;;;18.67;16.97;;;12.90;95.40;;;;;;5015814;28;20481;-69
2021/11/11 09:48:43;;;;;;;22.73;20.37;;;12.20;96.70;;;;;;5016696;28;20448;-70
2021/11/11 09:51:17;;;;;;;22.67;20.37;;;11.80;97.80;;;;;;5016064;28;20477;-69
2021/11/11 09:53:53;;;;;;;23.97;20.80;;;11.00;99.80;;;;;;5015975;28;20472;-70
2021/11/11 09:59:05;;;;;;;21.60;19.47;;;9.00;99.90;;;;;;5015924;28;20420;-69
2021/11/11 10:01:32;;;;;;;22.67;20.27;;;8.60;99.90;;;;;;5014596;28;20912;-69
2021/11/11 10:03:59;;;;;;;20.73;18.53;;;8.00;99.90;;;;;;5015835;28;20460;-69
2021/11/11 10:06:29;;;;;;;20.00;17.50;;;8.00;99.90;;;;;;5015709;28;20480;-69
2021/11/11 10:08:57;;;;;;;17.30;15.50;;;7.80;99.90;;;;;;5015837;28;20542;-68
2021/11/11 10:11:29;;;;;;;18.17;16.27;;;7.50;99.90;;;;;;5015502;28;20987;-69
2021/11/11 10:13:57;;;;;;;18.23;15.23;;;7.40;99.90;;;;;;5017446;28;20442;-69
2021/11/11 10:16:24;;;;;;;19.67;17.77;;;7.50;99.90;;;;;;5021252;28;20451;-68
2021/11/11 10:18:53;;;;;;;17.97;16.13;;;7.10;99.90;;;;;;5016557;28;20460;-67
2021/11/11 10:21:41;;;;;;;19.30;17.20;;;7.00;99.90;;;;;;5016667;28;20473;-67
2021/11/11 10:24:31;;;;;;;23.10;17.53;;;7.00;99.90;;;;;;5016144;28;20446;-70
2021/11/11 10:27:02;;;;;;;18.03;16.30;;;7.00;99.90;;;;;;5015628;28;20536;-70
2021/11/11 10:29:33;;;;;;;18.97;17.10;;;6.90;99.90;;;;;;5015161;28;20461;-70
2021/11/11 10:32:06;;;;;;;17.53;15.83;;;7.50;99.90;;;;;;5015206;28;20475;-69
2021/11/11 10:34:33;;;;;;;18.47;16.57;;;8.40;99.90;;;;;;5015613;28;20438;-69
2021/11/11 10:37:02;;;;;;;22.73;18.27;;;9.20;99.90;;;;;;5015417;28;20453;-70
2021/11/11 10:39:31;;;;;;;19.47;17.57;;;9.50;99.90;;;;;;5015358;28;20462;-70
2021/11/11 10:41:59;;;;;;;20.67;18.50;;;9.60;99.90;;;;;;5015216;28;20538;-69
2021/11/11 10:44:30;;;;;;;22.73;20.27;;;10.00;99.90;;;;;;5015195;28;20456;-69
2021/11/11 10:47:00;;;;;;;20.00;17.93;;;10.20;99.90;;;;;;5015148;28;20466;-69
2021/11/11 10:49:31;;;;;;;21.03;18.83;;;10.20;99.90;;;;;;5020810;28;20461;-69
2021/11/11 10:52:23;;;;;;;21.77;19.53;;;9.50;99.90;;;;;;5019984;28;20481;-70
2021/11/11 10:55:12;;;;;;;21.53;19.30;;;9.70;99.90;;;;;;5019630;28;20438;-70
2021/11/11 10:57:44;;;;;;;22.30;18.67;;;9.50;99.90;;;;;;5017128;28;20445;-69
2021/11/11 11:00:15;;;;;;;20.37;18.40;;;9.60;99.90;;;;;;5015828;28;20470;-69
2021/11/11 11:02:54;;;;;;;21.80;18.20;;;9.50;99.90;;;;;;5015308;28;20448;-69
2021/11/11 11:05:22;;;;;;;21.73;19.50;;;9.70;99.90;;;;;;5014787;28;20524;-70
2021/11/11 11:07:55;;;;;;;22.77;19.70;;;9.60;99.90;;;;;;5014977;28;20453;-70
2021/11/11 11:10:22;;;;;;;20.73;18.70;;;9.40;99.90;;;;;;5014769;28;20560;-69
2021/11/11 11:12:49;;;;;;;25.60;21.57;;;9.50;99.90;;;;;;5014861;28;20454;-69
2021/11/11 11:15:34;;;;;;;21.00;19.03;;;9.70;99.90;;;;;;5014663;28;20460;-69
2021/11/11 11:18:01;;;;;;;21.07;18.97;;;9.90;99.90;;;;;;5014532;28;20472;-70
2021/11/11 11:20:28;;;;;;;20.63;18.43;;;9.60;99.90;;;;;;5014246;28;20460;-70
2021/11/11 11:23:16;;;;;;;23.10;20.80;;;9.60;99.90;;;;;;5014660;28;20470;-70
2021/11/11 11:25:52;;;;;;;24.20;21.60;;;9.40;99.90;;;;;;5014911;28;20465;-70
2021/11/11 11:28:30;;;;;;;25.47;19.90;;;9.30;99.90;;;;;;5014501;28;20955;-70
2021/11/11 11:30:59;;;;;;;23.27;20.77;;;8.70;99.90;;;;;;5014166;28;20486;-71
2021/11/11 11:33:33;;;;;;;22.57;20.17;;;8.60;99.90;;;;;;5014427;28;20457;-70
2021/11/11 11:36:00;;;;;;;22.87;20.03;;;8.70;99.90;;;;;;5014306;28;20898;-69
2021/11/11 11:38:30;;;;;;;24.57;19.97;;;8.60;99.90;;;;;;5014320;28;20434;-69
2021/11/11 11:40:58;;;;;;;22.93;20.57;;;8.70;99.90;;;;;;5014782;28;20484;-71
2021/11/11 11:43:29;;;;;;;25.70;20.70;;;8.50;99.90;;;;;;5016839;28;20461;-70
2021/11/11 11:46:13;;;;;;;23.67;20.40;;;8.50;99.90;;;;;;5019562;28;20501;-70
2021/11/11 11:48:41;;;;;;;24.90;20.57;;;8.10;99.90;;;;;;5017437;28;20488;-68
2021/11/11 11:51:09;;;;;;;24.27;21.10;;;7.90;99.90;;;;;;5019827;28;20488;-69
2021/11/11 11:53:43;;;;;;;21.83;19.63;;;7.40;99.90;;;;;;5017082;28;20560;-70
2021/11/11 11:56:14;;;;;;;22.60;19.73;;;7.30;99.90;;;;;;5016612;28;20440;-69
2021/11/11 11:58:44;;;;;;;20.73;18.53;;;7.30;99.90;;;;;;5018422;28;20441;-69
2021/11/11 12:04:16;;;;;;;20.90;18.80;;;7.00;99.90;;;;;;4992926;28;20514;-69
2021/11/11 12:09:37;;;;;;;21.20;19.10;;;7.40;99.90;;;;;;5016485;28;20545;-69
2021/11/11 12:12:49;;;;;;;22.17;19.83;;;7.00;99.90;;;;;;5015821;28;20476;-69
2021/11/11 12:15:27;;;;;;;22.17;19.87;;;7.20;99.90;;;;;;5015514;28;20437;-70
2021/11/11 12:18:28;;;;;;;23.63;20.80;;;7.30;99.90;;;;;;5014144;28;20477;-69
2021/11/11 12:40:31;;;;;;;25.63;22.37;;;7.40;99.90;;;;;;5017061;28;20478;-69
2021/11/11 12:43:12;;;;;;;23.60;21.10;;;7.30;99.90;;;;;;5017481;28;20963;-68
2021/11/11 12:45:41;;;;;;;27.97;21.97;;;7.30;99.90;;;;;;5017276;28;20436;-68
2021/11/11 12:48:21;;;;;;;26.70;23.90;;;7.30;99.90;;;;;;5017420;28;20810;-69
2021/11/11 12:50:49;;;;;;;29.30;24.13;;;7.20;99.90;;;;;;5016559;28;20504;-67
2021/11/11 12:53:44;;;;;;;26.83;23.90;;;7.30;99.90;;;;;;5016823;28;20962;-68
2021/11/11 12:56:33;;;;;;;25.60;22.70;;;7.40;99.90;;;;;;5017096;28;20434;-68
2021/11/11 12:59:11;;;;;;;29.70;24.73;;;7.50;99.90;;;;;;5017597;28;20444;-69
2021/11/11 13:01:50;;;;;;;29.97;26.50;;;7.30;99.90;;;;;;5017872;28;20488;-69
2021/11/11 13:04:18;;;;;;;32.67;25.33;;;7.00;99.90;;;;;;5017548;28;20935;-68
2021/11/11 13:06:49;;;;;;;38.93;27.20;;;6.60;99.90;;;;;;5017342;28;20466;-68
2021/11/11 13:09:29;;;;;;;31.43;26.10;;;6.50;99.90;;;;;;5017676;28;20500;-68
2021/11/11 13:11:57;;;;;;;36.37;26.40;;;6.40;99.90;;;;;;5018152;28;20475;-68
2021/11/11 13:14:28;;;;;;;31.47;27.13;;;6.30;99.90;;;;;;5017671;28;20981;-67
2021/11/11 13:17:11;;;;;;;30.80;26.53;;;6.20;99.90;;;;;;5017481;28;20445;-68
2021/11/11 13:19:41;;;;;;;32.83;27.57;;;6.30;99.90;;;;;;5017159;28;20819;-67
2021/11/11 13:22:14;;;;;;;32.53;26.57;;;6.40;99.90;;;;;;5016874;28;20893;-68
2021/11/11 13:24:55;;;;;;;31.17;27.80;;;6.40;99.90;;;;;;5019062;28;20498;-68
2021/11/11 13:59:11;;;;;;;36.87;28.07;;;6.60;99.90;;;;;;5027079;28;20910;-67
2021/11/11 14:01:51;;;;;;;34.77;30.00;;;6.50;99.90;;;;;;5016571;28;20480;-67
2021/11/11 14:04:38;;;;;;;35.10;29.70;;;6.40;99.90;;;;;;5016962;28;20440;-67
2021/11/11 16:02:06;;;;;;;85.73;47.17;;;5.70;99.90;;;;;;5018109;28;20464;-71
2021/11/11 16:21:06;;;;;;;219.40;44.57;;;5.60;99.90;;;;;;5018704;28;20917;-69
2021/11/11 16:23:48;;;;;;;69.90;43.10;;;5.50;99.90;;;;;;5018256;28;20455;-71
2021/11/11 16:26:17;;;;;;;128.27;40.80;;;5.50;99.90;;;;;;5018451;28;20503;-70
2021/11/11 16:28:48;;;;;;;95.30;41.07;;;5.50;99.90;;;;;;5018067;28;20547;-70
2021/11/11 16:31:15;;;;;;;73.07;41.97;;;5.50;99.90;;;;;;5018649;28;20476;-71
2021/11/11 16:33:44;;;;;;;102.60;41.10;;;5.50;99.90;;;;;;5018681;28;20462;-70
2021/11/11 16:36:12;;;;;;;124.30;38.30;;;5.50;99.90;;;;;;5018856;28;20457;-70
2021/11/11 16:38:39;;;;;;;79.63;35.53;;;5.30;99.90;;;;;;5018551;28;20453;-69
2021/11/11 16:41:07;;;;;;;123.30;41.40;;;5.20;99.90;;;;;;5017916;28;21057;-71
2021/11/11 16:43:34;;;;;;;124.00;44.87;;;5.20;99.90;;;;;;5018202;28;20547;-69
2021/11/11 16:46:01;;;;;;;67.97;43.10;;;5.10;99.90;;;;;;5020698;28;20453;-67
2021/11/11 16:48:28;;;;;;;190.90;44.70;;;5.10;99.90;;;;;;5020146;28;20500;-68
2021/11/11 16:50:57;;;;;;;176.33;44.13;;;5.20;99.90;;;;;;5019901;28;20476;-69
2021/11/11 16:53:25;;;;;;;140.93;42.03;;;5.20;99.90;;;;;;5020560;28;20465;-69
2021/11/11 16:55:52;;;;;;;115.40;42.90;;;5.20;99.90;;;;;;5024036;28;20460;-69
2021/11/11 16:58:19;;;;;;;126.13;42.67;;;5.20;99.90;;;;;;5023388;28;20449;-69
2021/11/11 17:00:46;;;;;;;198.00;43.93;;;5.20;99.90;;;;;;5017147;28;20491;-68
2021/11/11 17:03:13;;;;;;;159.13;44.10;;;5.00;99.90;;;;;;5018430;28;20457;-69
2021/11/11 17:05:40;;;;;;;136.57;47.30;;;5.00;99.90;;;;;;5017998;28;20825;-69
2021/11/11 17:08:08;;;;;;;112.67;41.93;;;5.00;99.90;;;;;;5017182;28;20464;-68
2021/11/11 17:10:36;;;;;;;74.73;41.97;;;5.00;99.90;;;;;;5016416;28;20507;-68
2021/11/11 17:13:04;;;;;;;81.67;41.10;;;5.00;99.90;;;;;;5017075;28;20490;-68
2021/11/11 17:15:33;;;;;;;101.07;44.73;;;5.10;99.90;;;;;;5016899;28;20484;-68
2021/11/11 17:18:02;;;;;;;443.77;50.50;;;5.10;99.90;;;;;;5016496;28;20453;-68
2021/11/11 17:20:31;;;;;;;346.00;55.07;;;5.10;99.90;;;;;;5016758;28;20815;-67
2021/11/11 17:23:00;;;;;;;176.80;46.80;;;5.00;99.90;;;;;;5017294;28;20453;-68
2021/11/11 17:25:35;;;;;;;287.40;51.50;;;5.10;99.90;;;;;;5017408;28;20793;-66
2021/11/11 17:28:25;;;;;;;189.03;44.70;;;5.30;99.90;;;;;;5016725;28;20465;-70
2021/11/11 17:30:55;;;;;;;240.13;42.90;;;5.80;99.90;;;;;;5017859;28;20568;-68
2021/11/11 17:33:24;;;;;;;172.47;40.60;;;6.00;99.90;;;;;;5017386;28;20453;-69
2021/11/11 17:35:51;;;;;;;119.07;38.80;;;6.00;99.90;;;;;;5017204;28;20457;-70
2021/11/11 17:38:20;;;;;;;61.73;33.67;;;5.80;99.90;;;;;;5017993;28;20846;-70
2021/11/11 17:40:52;;;;;;;239.57;42.60;;;5.90;99.90;;;;;;5016750;28;20458;-71
2021/11/11 17:43:19;;;;;;;218.10;43.30;;;5.90;99.90;;;;;;5016342;28;20434;-68
2021/11/11 17:45:51;;;;;;;296.57;42.20;;;5.90;99.90;;;;;;5016220;28;20454;-69
2021/11/11 17:48:18;;;;;;;364.87;46.90;;;5.70;99.90;;;;;;5016615;28;20473;-71
2021/11/11 17:50:54;;;;;;;208.63;42.93;;;5.60;99.90;;;;;;5016287;28;20473;-70
2021/11/11 17:53:22;;;;;;;257.17;44.93;;;5.60;99.90;;;;;;5015558;28;20970;-72
2021/11/11 17:55:52;;;;;;;127.03;41.47;;;5.60;99.90;;;;;;5015664;28;20506;-71
2021/11/11 17:58:21;;;;;;;169.70;46.03;;;5.40;99.90;;;;;;5015509;28;20524;-71
2021/11/11 18:00:50;;;;;;;143.53;46.57;;;5.30;99.90;;;;;;5015291;28;20489;-71
2021/11/11 18:03:18;;;;;;;175.90;40.47;;;5.30;99.90;;;;;;5015387;28;20449;-71
2021/11/11 18:05:45;;;;;;;102.20;39.53;;;5.20;99.90;;;;;;5015305;28;20453;-71
2021/11/11 18:08:17;;;;;;;74.50;40.10;;;5.10;99.90;;;;;;5015288;28;20477;-71
2021/11/11 18:10:46;;;;;;;146.07;42.00;;;5.10;99.90;;;;;;5016087;28;20918;-71
2021/11/11 18:13:15;;;;;;;125.83;42.50;;;5.10;99.90;;;;;;5016941;28;20799;-70
2021/11/11 18:15:45;;;;;;;158.73;42.43;;;5.00;99.90;;;;;;5015812;28;20590;-70
2021/11/11 18:18:11;;;;;;;76.87;41.83;;;4.90;99.90;;;;;;5015262;28;20909;-70
2021/11/11 18:20:41;;;;;;;183.20;44.50;;;4.90;99.90;;;;;;5015312;28;20589;-70
2021/11/11 18:23:08;;;;;;;143.30;43.40;;;4.70;99.90;;;;;;5014870;28;20488;-70
2021/11/11 18:25:35;;;;;;;173.77;46.00;;;4.70;99.90;;;;;;5015038;28;20504;-69
2021/11/11 18:28:05;;;;;;;122.67;44.20;;;4.60;99.90;;;;;;5014606;28;21006;-70
2021/11/11 18:30:37;;;;;;;152.93;45.50;;;4.60;99.90;;;;;;5014856;28;20453;-69
2021/11/11 18:33:07;;;;;;;131.90;44.97;;;4.60;99.90;;;;;;5014639;28;20444;-69
2021/11/11 18:35:46;;;;;;;141.57;45.63;;;4.60;99.90;;;;;;5014897;28;20437;-68
2021/11/11 18:38:16;;;;;;;168.43;46.37;;;4.70;99.90;;;;;;5014743;28;20445;-69
2021/11/11 18:40:44;;;;;;;200.63;48.80;;;4.70;99.90;;;;;;5014829;28;20890;-69
2021/11/11 18:43:13;;;;;;;113.17;46.90;;;4.70;99.90;;;;;;5014890;28;20504;-69
2021/11/11 18:45:41;;;;;;;94.03;43.80;;;4.70;99.90;;;;;;5014838;28;20803;-68
2021/11/11 18:48:26;;;;;;;100.07;44.23;;;4.70;99.90;;;;;;5014669;28;20477;-69
2021/11/11 18:50:54;;;;;;;158.33;45.90;;;4.60;99.90;;;;;;5014674;28;20488;-69
2021/11/11 18:53:23;;;;;;;104.07;45.27;;;4.60;99.90;;;;;;5014604;28;20865;-68
2021/11/11 18:55:50;;;;;;;100.93;44.07;;;4.70;99.90;;;;;;5014822;28;20444;-69
2021/11/11 18:58:17;;;;;;;108.13;46.43;;;4.60;99.90;;;;;;5014705;28;20473;-69
2021/11/11 19:00:46;;;;;;;86.20;46.90;;;4.60;99.90;;;;;;5014716;28;20487;-68
2021/11/11 19:03:14;;;;;;;96.47;45.77;;;4.50;99.90;;;;;;5014567;28;20453;-68
2021/11/11 19:05:46;;;;;;;143.27;45.90;;;4.60;99.90;;;;;;5015852;28;20441;-68
2021/11/11 19:08:18;;;;;;;80.87;44.63;;;4.60;99.90;;;;;;5016647;28;20555;-68
2021/11/11 19:10:47;;;;;;;101.77;44.87;;;4.70;99.90;;;;;;5015890;28;20512;-69
2021/11/11 19:13:22;;;;;;;96.90;44.67;;;4.70;99.90;;;;;;5015435;28;20454;-68
2021/11/11 19:15:51;;;;;;;91.50;41.70;;;4.80;99.90;;;;;;5015235;28;20440;-69
2021/11/11 19:18:28;;;;;;;68.43;40.33;;;4.80;99.90;;;;;;5015691;28;20440;-68
2021/11/11 19:20:55;;;;;;;136.13;43.37;;;4.80;99.90;;;;;;5015675;28;20982;-69
2021/11/11 19:23:22;;;;;;;55.77;38.40;;;4.90;99.90;;;;;;5016055;28;20437;-69
2021/11/11 19:25:49;;;;;;;233.83;44.53;;;4.90;99.90;;;;;;5015561;28;20952;-67
2021/11/11 19:28:17;;;;;;;75.03;41.23;;;4.90;99.90;;;;;;5015336;28;20490;-68
2021/11/11 19:30:45;;;;;;;137.53;43.13;;;4.90;99.90;;;;;;5015255;28;20496;-68
2021/11/11 19:33:15;;;;;;;159.40;44.23;;;4.90;99.90;;;;;;5015239;28;20438;-68
2021/11/11 19:35:46;;;;;;;127.87;44.30;;;4.80;99.90;;;;;;5014930;28;20441;-69
2021/11/11 19:38:24;;;;;;;80.63;44.80;;;4.80;99.90;;;;;;5014645;28;20442;-68
2021/11/11 19:41:08;;;;;;;164.57;44.60;;;4.80;99.90;;;;;;5014970;28;20509;-67
2021/11/11 19:43:52;;;;;;;84.67;42.43;;;4.70;99.90;;;;;;5014285;28;20511;-68
2021/11/11 19:46:47;;;;;;;100.30;44.93;;;4.70;99.90;;;;;;5014353;28;20444;-69
2021/11/11 19:49:34;;;;;;;199.53;47.60;;;4.70;99.90;;;;;;5014299;28;20552;-69
2021/11/11 19:55:04;;;;;;;228.93;48.23;;;4.70;99.90;;;;;;5014297;28;20793;-68
2021/11/11 19:57:46;;;;;;;111.70;45.50;;;4.70;99.90;;;;;;5015918;28;20443;-68
2021/11/11 20:03:10;;;;;;;202.90;48.37;;;4.70;99.90;;;;;;5014538;28;20432;-68
2021/11/11 20:05:57;;;;;;;134.30;46.97;;;4.60;99.90;;;;;;5014432;28;20442;-68
2021/11/11 20:11:08;;;;;;;201.20;47.60;;;4.60;99.90;;;;;;5012227;28;20461;-68
2021/11/11 20:19:17;;;;;;;79.37;43.47;;;4.60;99.90;;;;;;5014582;28;20413;-68
2021/11/11 20:30:39;;;;;;;179.97;45.37;;;4.50;99.90;;;;;;4973304;28;20456;-69
2021/11/11 20:33:29;;;;;;;72.33;44.87;;;4.50;99.90;;;;;;5004187;28;20456;-69
2021/11/11 20:41:32;;;;;;;107.97;45.17;;;4.60;99.90;;;;;;5006734;28;20466;-69
2021/11/11 20:44:12;;;;;;;122.43;44.20;;;4.70;99.90;;;;;;5014045;28;20504;-69
2021/11/11 20:46:46;;;;;;;241.30;47.80;;;4.60;99.90;;;;;;5017753;28;20439;-68
2021/11/11 20:54:54;;;;;;;76.17;40.17;;;4.70;99.90;;;;;;5017226;28;20452;-68
2021/11/11 20:57:24;;;;;;;79.53;42.50;;;4.60;99.90;;;;;;5018188;28;20532;-68
2021/11/11 21:02:49;;;;;;;264.07;48.07;;;4.60;99.90;;;;;;4995580;28;21018;-68
2021/11/11 21:05:18;;;;;;;152.67;42.00;;;4.60;99.90;;;;;;5017307;28;20840;-69
2021/11/11 21:07:50;;;;;;;230.73;44.63;;;4.60;99.90;;;;;;5017367;28;20844;-67
2021/11/11 21:10:36;;;;;;;109.77;44.10;;;4.60;99.90;;;;;;5017396;28;20461;-67
2021/11/11 21:13:17;;;;;;;202.90;45.17;;;4.50;99.90;;;;;;5016719;28;20897;-67
2021/11/11 21:15:55;;;;;;;151.87;45.40;;;4.50;99.90;;;;;;5016801;28;20437;-68
2021/11/11 21:18:27;;;;;;;309.63;49.97;;;4.50;99.90;;;;;;5016537;28;20448;-69
2021/11/11 21:20:55;;;;;;;279.90;47.07;;;4.40;99.90;;;;;;5016584;28;20477;-68
2021/11/11 21:23:22;;;;;;;304.00;50.13;;;4.40;99.90;;;;;;5016387;28;20514;-68
2021/11/11 21:25:50;;;;;;;143.87;46.37;;;4.40;99.90;;;;;;5017076;28;20457;-68
2021/11/11 21:28:17;;;;;;;264.70;47.73;;;4.40;99.90;;;;;;5016653;28;20478;-68
2021/11/11 21:30:44;;;;;;;176.80;47.37;;;4.40;99.90;;;;;;5016722;28;20478;-69
2021/11/11 21:33:15;;;;;;;135.97;44.43;;;4.40;99.90;;;;;;5016183;28;21002;-69
2021/11/11 21:35:51;;;;;;;168.37;42.87;;;4.40;99.90;;;;;;5016617;28;20484;-69